Time,TemperatureF,DewpointF,PressureIn,WindDirection,WindDirectionDegrees,WindSpeedMPH,WindSpeedGustMPH,Humidity,HourlyPrecipIn,Conditions,Clouds,dailyrainin,SoftwareType,DateUTC
2013-04-05 00:00:00,66.6,63.5,29.94,SSW,203,2.0,5.4,90,0.00,,,0.18,WUHU216HW,2013-04-05 04:00:00,
2013-04-05 00:05:00,66.6,63.5,29.94,SSW,203,3.8,3.8,90,0.00,,,0.00,WUHU216HW,2013-04-05 04:05:00,
2013-04-05 00:10:00,66.6,63.5,29.93,SSW,203,2.5,5.4,90,0.00,,,0.00,WUHU216HW,2013-04-05 04:10:00,
2013-04-05 00:15:00,66.6,63.5,29.92,South,180,2.9,5.4,90,0.00,,,0.00,WUHU216HW,2013-04-05 04:15:00,
2013-04-05 00:20:00,66.6,63.5,29.92,SSW,203,2.9,4.0,90,0.00,,,0.00,WUHU216HW,2013-04-05 04:20:00,
2013-04-05 00:25:00,66.6,63.5,29.93,South,180,4.3,4.9,90,0.00,,,0.00,WUHU216HW,2013-04-05 04:25:00,
2013-04-05 00:30:00,66.6,63.5,29.92,South,180,2.9,5.1,90,0.00,,,0.00,WUHU216HW,2013-04-05 04:30:00,
2013-04-05 00:35:00,66.4,63.4,29.90,SSW,203,2.9,5.1,90,0.00,,,0.00,WUHU216HW,2013-04-05 04:35:00,
2013-04-05 00:40:00,66.4,63.4,29.91,SW,225,1.8,4.7,90,0.00,,,0.00,WUHU216HW,2013-04-05 04:40:00,
2013-04-05 00:45:00,66.4,63.4,29.90,SSE,158,2.2,3.4,90,0.00,,,0.00,WUHU216HW,2013-04-05 04:45:00,
2013-04-05 00:50:00,66.4,63.4,29.90,SW,225,2.5,4.3,90,0.00,,,0.00,WUHU216HW,2013-04-05 04:50:00,
2013-04-05 00:55:00,66.4,63.4,29.90,SSW,203,2.5,4.3,90,0.00,,,0.00,WUHU216HW,2013-04-05 04:55:00,
2013-04-05 01:00:00,66.4,63.4,29.91,SW,225,1.1,3.4,90,0.00,,,0.00,WUHU216HW,2013-04-05 05:00:00,
2013-04-05 01:05:00,66.4,63.4,29.90,SW,225,0.9,3.4,90,0.00,,,0.00,WUHU216HW,2013-04-05 05:05:00,
2013-04-05 01:10:00,66.4,63.4,29.91,SSW,203,1.3,2.5,90,0.00,,,0.00,WUHU216HW,2013-04-05 05:10:00,
2013-04-05 01:15:00,66.2,63.2,29.92,SSW,203,2.2,2.5,90,0.00,,,0.00,WUHU216HW,2013-04-05 05:15:00,
2013-04-05 01:20:00,66.2,63.2,29.92,SSW,203,2.0,2.2,90,0.00,,,0.00,WUHU216HW,2013-04-05 05:20:00,
2013-04-05 01:25:00,66.2,63.2,29.92,SSW,203,1.3,2.0,90,0.00,,,0.00,WUHU216HW,2013-04-05 05:25:00,
2013-04-05 01:30:00,66.2,63.2,29.93,SSW,203,2.5,2.5,90,0.00,,,0.00,WUHU216HW,2013-04-05 05:30:00,
2013-04-05 01:35:00,66.1,63.0,29.92,SSE,158,1.8,2.7,90,0.00,,,0.00,WUHU216HW,2013-04-05 05:35:00,
2013-04-05 01:40:00,66.1,63.4,29.92,South,180,1.1,2.7,91,0.00,,,0.00,WUHU216HW,2013-04-05 05:40:00,
2013-04-05 01:45:00,66.1,63.4,29.92,SW,225,0.7,2.2,91,0.00,,,0.00,WUHU216HW,2013-04-05 05:45:00,
2013-04-05 01:50:00,66.1,63.4,29.92,SSW,203,0.4,2.2,91,0.00,,,0.00,WUHU216HW,2013-04-05 05:50:00,
2013-04-05 01:55:00,65.9,63.2,29.90,SSE,158,0.7,1.1,91,0.00,,,0.00,WUHU216HW,2013-04-05 05:55:00,
2013-04-05 02:00:00,65.9,63.2,29.90,SSE,158,0.0,1.1,91,0.00,,,0.00,WUHU216HW,2013-04-05 06:00:00,
2013-04-05 02:05:00,65.9,63.2,29.91,SSW,203,0.0,1.1,91,0.00,,,0.00,WUHU216HW,2013-04-05 06:05:00,
2013-04-05 02:10:00,65.9,63.2,29.91,SSE,158,0.9,1.1,91,0.00,,,0.00,WUHU216HW,2013-04-05 06:10:00,
2013-04-05 02:15:00,65.9,63.2,29.90,SSE,158,1.1,1.1,91,0.00,,,0.00,WUHU216HW,2013-04-05 06:15:00,
2013-04-05 02:20:00,65.9,63.2,29.90,SSE,158,1.1,1.3,91,0.00,,,0.00,WUHU216HW,2013-04-05 06:20:00,
2013-04-05 02:25:00,65.7,62.7,29.89,SSE,158,0.0,1.3,90,0.00,,,0.00,WUHU216HW,2013-04-05 06:25:00,
2013-04-05 02:30:00,65.7,62.7,29.89,SSE,158,0.0,0.9,90,0.00,,,0.00,WUHU216HW,2013-04-05 06:30:00,
2013-04-05 02:35:00,65.5,62.6,29.89,ESE,113,0.9,0.9,90,0.00,,,0.00,WUHU216HW,2013-04-05 06:35:00,
2013-04-05 02:40:00,65.5,62.6,29.90,ESE,113,0.0,0.9,90,0.00,,,0.00,WUHU216HW,2013-04-05 06:40:00,
2013-04-05 02:45:00,65.3,62.4,29.89,NNW,338,0.2,1.1,90,0.00,,,0.00,WUHU216HW,2013-04-05 06:45:00,
2013-04-05 02:50:00,65.2,62.2,29.88,NNE,23,0.4,1.1,90,0.00,,,0.00,WUHU216HW,2013-04-05 06:50:00,
2013-04-05 02:55:00,65.2,62.2,29.88,ENE,68,0.2,0.7,90,0.00,,,0.00,WUHU216HW,2013-04-05 06:55:00,
2013-04-05 03:00:00,65.2,62.2,29.88,ENE,68,0.0,0.7,90,0.00,,,0.00,WUHU216HW,2013-04-05 07:00:00,
2013-04-05 03:05:00,65.2,62.2,29.88,ENE,68,0.0,0.0,90,0.00,,,0.00,WUHU216HW,2013-04-05 07:05:00,
2013-04-05 03:10:00,65.2,62.2,29.89,ENE,68,0.0,0.0,90,0.00,,,0.00,WUHU216HW,2013-04-05 07:10:00,
2013-04-05 03:15:00,65.0,62.4,29.89,North,0,0.0,0.7,91,0.00,,,0.00,WUHU216HW,2013-04-05 07:15:00,
2013-04-05 03:20:00,64.8,62.2,29.89,North,0,0.0,0.7,91,0.00,,,0.00,WUHU216HW,2013-04-05 07:20:00,
2013-04-05 03:25:00,64.8,62.2,29.89,North,0,0.0,0.0,91,0.00,,,0.00,WUHU216HW,2013-04-05 07:25:00,
2013-04-05 03:30:00,64.6,62.0,29.89,North,0,0.0,0.0,91,0.00,,,0.00,WUHU216HW,2013-04-05 07:30:00,
2013-04-05 03:36:00,64.6,62.0,29.88,North,0,0.0,0.0,91,0.00,,,0.00,WUHU216HW,2013-04-05 07:36:00,
2013-04-05 03:41:00,64.6,62.0,29.88,North,0,0.0,0.0,91,0.00,,,0.00,WUHU216HW,2013-04-05 07:41:00,
2013-04-05 03:46:00,64.4,61.8,29.88,NNW,338,0.0,0.9,91,0.00,,,0.00,WUHU216HW,2013-04-05 07:46:00,
2013-04-05 03:51:00,64.4,61.8,29.88,SE,135,1.1,1.1,91,0.00,,,0.00,WUHU216HW,2013-04-05 07:51:00,
2013-04-05 03:56:00,64.6,62.0,29.87,SSW,203,0.9,1.3,91,0.00,,,0.00,WUHU216HW,2013-04-05 07:56:00,
2013-04-05 04:01:00,64.6,62.0,29.87,SSE,158,1.3,1.3,91,0.00,,,0.00,WUHU216HW,2013-04-05 08:01:00,
2013-04-05 04:06:00,64.6,62.0,29.87,SSW,203,0.0,1.3,91,0.00,,,0.00,WUHU216HW,2013-04-05 08:06:00,
2013-04-05 04:11:00,64.6,62.0,29.87,SSW,203,0.0,1.1,91,0.00,,,0.00,WUHU216HW,2013-04-05 08:11:00,
2013-04-05 04:16:00,64.6,62.3,29.87,WSW,248,0.4,0.4,92,0.00,,,0.00,WUHU216HW,2013-04-05 08:16:00,
2013-04-05 04:21:00,64.4,62.1,29.86,WSW,248,0.0,0.4,92,0.00,,,0.00,WUHU216HW,2013-04-05 08:21:00,
2013-04-05 04:26:00,64.4,62.1,29.86,WNW,293,0.0,0.4,92,0.00,,,0.00,WUHU216HW,2013-04-05 08:26:00,
2013-04-05 04:32:00,64.4,62.1,29.86,WNW,293,0.0,0.0,92,0.00,,,0.00,WUHU216HW,2013-04-05 08:32:00,
2013-04-05 04:37:00,64.3,61.9,29.85,WNW,293,0.0,0.0,92,0.00,,,0.00,WUHU216HW,2013-04-05 08:37:00,
2013-04-05 04:42:00,64.3,61.9,29.86,WNW,293,0.0,0.0,92,0.00,,,0.00,WUHU216HW,2013-04-05 08:42:00,
2013-04-05 04:47:00,64.3,61.9,29.85,WNW,293,0.0,0.0,92,0.00,,,0.00,WUHU216HW,2013-04-05 08:47:00,
2013-04-05 04:52:00,64.1,61.7,29.85,WNW,293,0.0,0.0,92,0.00,,,0.00,WUHU216HW,2013-04-05 08:52:00,
2013-04-05 04:57:00,64.1,61.7,29.85,WNW,293,0.0,0.0,92,0.00,,,0.00,WUHU216HW,2013-04-05 08:57:00,
2013-04-05 05:02:00,63.7,61.4,29.85,NW,315,0.2,0.2,92,0.00,,,0.00,WUHU216HW,2013-04-05 09:02:00,
2013-04-05 05:07:00,63.7,61.4,29.85,NW,315,0.0,0.2,92,0.00,,,0.00,WUHU216HW,2013-04-05 09:07:00,
2013-04-05 05:12:00,63.7,61.4,29.85,NW,315,0.0,0.0,92,0.00,,,0.00,WUHU216HW,2013-04-05 09:12:00,
2013-04-05 05:17:00,63.7,61.4,29.85,NW,315,0.0,0.0,92,0.00,,,0.00,WUHU216HW,2013-04-05 09:17:00,
2013-04-05 05:22:00,63.7,61.4,29.85,NW,315,0.0,0.0,92,0.00,,,0.00,WUHU216HW,2013-04-05 09:22:00,
2013-04-05 05:27:00,63.7,61.4,29.84,SW,225,0.4,0.4,92,0.00,,,0.00,WUHU216HW,2013-04-05 09:27:00,
2013-04-05 05:32:00,63.7,61.4,29.83,SSE,158,0.0,0.7,92,0.00,,,0.00,WUHU216HW,2013-04-05 09:32:00,
2013-04-05 05:37:00,63.7,61.4,29.83,SSE,158,0.0,0.7,92,0.00,,,0.00,WUHU216HW,2013-04-05 09:37:00,
2013-04-05 05:42:00,63.7,61.4,29.82,SSE,158,0.0,0.0,92,0.00,,,0.00,WUHU216HW,2013-04-05 09:42:00,
2013-04-05 05:47:00,63.7,61.4,29.82,South,180,0.9,1.1,92,0.00,,,0.00,WUHU216HW,2013-04-05 09:47:00,
2013-04-05 05:52:00,63.7,61.4,29.83,SSW,203,1.6,1.8,92,0.00,,,0.00,WUHU216HW,2013-04-05 09:52:00,
2013-04-05 05:57:00,63.7,61.4,29.83,SSW,203,0.2,1.8,92,0.00,,,0.00,WUHU216HW,2013-04-05 09:57:00,
2013-04-05 06:02:00,63.7,61.4,29.83,SSW,203,0.0,1.3,92,0.00,,,0.00,WUHU216HW,2013-04-05 10:02:00,
2013-04-05 06:07:00,63.5,61.2,29.83,SSW,203,0.0,0.4,92,0.00,,,0.00,WUHU216HW,2013-04-05 10:07:00,
2013-04-05 06:12:00,63.7,61.4,29.84,SSW,203,0.0,0.0,92,0.00,,,0.00,WUHU216HW,2013-04-05 10:12:00,
2013-04-05 06:17:00,63.7,61.4,29.84,SSW,203,0.0,0.0,92,0.00,,,0.00,WUHU216HW,2013-04-05 10:17:00,
2013-04-05 06:22:00,63.5,61.2,29.84,WSW,248,0.0,0.0,92,0.00,,,0.00,WUHU216HW,2013-04-05 10:22:00,
2013-04-05 06:27:00,63.5,61.2,29.85,WNW,293,0.0,0.0,92,0.00,,,0.00,WUHU216HW,2013-04-05 10:27:00,
2013-04-05 06:32:00,63.5,61.2,29.85,SSW,203,1.1,1.1,92,0.00,,,0.00,WUHU216HW,2013-04-05 10:32:00,
2013-04-05 06:37:00,63.5,61.2,29.85,South,180,0.4,1.1,92,0.00,,,0.00,WUHU216HW,2013-04-05 10:37:00,
2013-04-05 06:42:00,63.5,61.6,29.85,South,180,0.7,0.7,93,0.00,,,0.00,WUHU216HW,2013-04-05 10:42:00,
2013-04-05 06:47:00,63.5,61.6,29.86,SSW,203,0.7,0.7,93,0.00,,,0.00,WUHU216HW,2013-04-05 10:47:00,
2013-04-05 06:52:00,63.5,61.6,29.86,SSW,203,0.0,0.7,93,0.00,,,0.00,WUHU216HW,2013-04-05 10:52:00,
2013-04-05 06:57:00,63.5,61.6,29.87,NW,315,0.4,0.4,93,0.00,,,0.00,WUHU216HW,2013-04-05 10:57:00,
2013-04-05 07:02:00,63.4,61.4,29.87,NW,315,0.0,0.7,93,0.00,,,0.00,WUHU216HW,2013-04-05 11:02:00,
2013-04-05 07:07:00,63.4,61.4,29.87,WNW,293,0.0,0.7,93,0.00,,,0.00,WUHU216HW,2013-04-05 11:07:00,
2013-04-05 07:12:00,63.4,61.4,29.87,WNW,293,0.0,0.0,93,0.00,,,0.00,WUHU216HW,2013-04-05 11:12:00,
2013-04-05 07:17:00,63.5,61.6,29.87,SW,225,0.0,0.9,93,0.00,,,0.00,WUHU216HW,2013-04-05 11:17:00,
2013-04-05 07:22:00,63.5,61.6,29.87,SSW,203,0.0,0.9,93,0.00,,,0.00,WUHU216HW,2013-04-05 11:22:00,
2013-04-05 07:27:00,63.7,61.8,29.87,SSW,203,0.0,0.0,93,0.00,,,0.00,WUHU216HW,2013-04-05 11:27:00,
2013-04-05 07:32:00,63.7,61.8,29.87,South,180,0.0,0.0,93,0.00,,,0.00,WUHU216HW,2013-04-05 11:32:00,
2013-04-05 07:37:00,63.7,61.8,29.88,SSW,203,0.2,0.7,93,0.00,,,0.00,WUHU216HW,2013-04-05 11:37:00,
2013-04-05 07:42:00,63.7,61.8,29.87,SW,225,0.0,0.7,93,0.00,,,0.00,WUHU216HW,2013-04-05 11:42:00,
2013-04-05 07:48:00,63.9,61.9,29.88,SW,225,0.0,0.0,93,0.00,,,0.00,WUHU216HW,2013-04-05 11:48:00,
2013-04-05 07:53:00,64.1,62.1,29.88,SSW,203,1.1,1.1,93,0.00,,,0.00,WUHU216HW,2013-04-05 11:53:00,
2013-04-05 07:58:00,64.1,62.1,29.88,South,180,2.5,2.5,93,0.00,,,0.00,WUHU216HW,2013-04-05 11:58:00,
2013-04-05 08:03:00,64.3,62.3,29.88,South,180,1.3,2.9,93,0.00,,,0.00,WUHU216HW,2013-04-05 12:03:00,
2013-04-05 08:08:00,64.3,62.3,29.89,SSW,203,0.7,2.9,93,0.00,,,0.00,WUHU216HW,2013-04-05 12:08:00,
2013-04-05 08:13:00,64.3,62.3,29.89,SSW,203,1.6,1.8,93,0.00,,,0.00,WUHU216HW,2013-04-05 12:13:00,
2013-04-05 08:18:00,64.3,62.3,29.89,SW,225,0.2,1.8,93,0.00,,,0.00,WUHU216HW,2013-04-05 12:18:00,
2013-04-05 08:23:00,64.4,62.5,29.89,SSW,203,1.3,1.3,93,0.00,,,0.00,WUHU216HW,2013-04-05 12:23:00,
2013-04-05 08:28:00,64.4,62.5,29.89,West,270,0.2,1.6,93,0.00,,,0.00,WUHU216HW,2013-04-05 12:28:00,
2013-04-05 08:33:00,64.4,62.5,29.89,SW,225,0.7,1.6,93,0.00,,,0.00,WUHU216HW,2013-04-05 12:33:00,
2013-04-05 08:38:00,64.4,62.5,29.90,SSW,203,2.9,2.9,93,0.00,,,0.00,WUHU216HW,2013-04-05 12:38:00,
2013-04-05 08:43:00,64.4,62.5,29.90,SW,225,1.8,2.9,93,0.00,,,0.00,WUHU216HW,2013-04-05 12:43:00,
2013-04-05 08:48:00,64.6,62.6,29.90,SSW,203,2.7,3.6,93,0.00,,,0.00,WUHU216HW,2013-04-05 12:48:00,
2013-04-05 08:53:00,64.6,62.6,29.90,South,180,2.5,3.8,93,0.00,,,0.00,WUHU216HW,2013-04-05 12:53:00,
2013-04-05 08:58:00,64.6,62.6,29.90,South,180,4.7,4.7,93,0.01,,,0.01,WUHU216HW,2013-04-05 12:58:00,
2013-04-05 09:03:00,64.6,62.6,29.89,SSW,203,2.9,4.7,93,0.02,,,0.02,WUHU216HW,2013-04-05 13:03:00,
2013-04-05 09:08:00,64.6,62.6,29.90,SSW,203,1.8,4.0,93,0.02,,,0.02,WUHU216HW,2013-04-05 13:08:00,
2013-04-05 09:13:00,64.6,62.6,29.89,SSW,203,3.1,3.6,93,0.02,,,0.02,WUHU216HW,2013-04-05 13:13:00,
2013-04-05 09:18:00,64.8,62.7,29.89,SSW,203,3.4,4.7,93,0.03,,,0.03,WUHU216HW,2013-04-05 13:18:00,
2013-04-05 09:23:00,65.0,62.9,29.90,SW,225,1.8,4.9,93,0.03,,,0.03,WUHU216HW,2013-04-05 13:23:00,
2013-04-05 09:28:00,65.0,62.9,29.90,SSW,203,1.8,4.9,93,0.03,,,0.03,WUHU216HW,2013-04-05 13:28:00,
2013-04-05 09:33:00,65.2,63.1,29.90,West,270,0.9,3.4,93,0.03,,,0.03,WUHU216HW,2013-04-05 13:33:00,
2013-04-05 09:39:00,65.3,63.3,29.89,SW,225,2.0,2.2,93,0.03,,,0.03,WUHU216HW,2013-04-05 13:39:00,
2013-04-05 09:44:00,66.1,63.9,29.90,WSW,248,2.2,4.5,93,0.03,,,0.03,WUHU216HW,2013-04-05 13:44:00,
2013-04-05 09:49:00,67.0,65.2,29.90,SSW,203,1.6,4.5,94,0.03,,,0.03,WUHU216HW,2013-04-05 13:49:00,
2013-04-05 09:54:00,67.5,65.7,29.90,WSW,248,2.0,3.1,94,0.02,,,0.03,WUHU216HW,2013-04-05 13:54:00,
2013-04-05 09:59:00,68.0,66.3,29.90,SSW,203,2.5,3.1,94,0.01,,,0.03,WUHU216HW,2013-04-05 13:59:00,
2013-04-05 10:04:00,68.2,66.4,29.90,South,180,4.0,4.5,94,0.01,,,0.03,WUHU216HW,2013-04-05 14:04:00,
2013-04-05 10:09:00,68.4,66.6,29.90,West,270,1.1,4.5,94,0.01,,,0.03,WUHU216HW,2013-04-05 14:09:00,
2013-04-05 10:14:00,68.6,66.8,29.90,SSW,203,1.3,4.0,94,0.00,,,0.03,WUHU216HW,2013-04-05 14:14:00,
2013-04-05 10:19:00,68.8,67.0,29.90,SW,225,3.8,4.0,94,0.00,,,0.03,WUHU216HW,2013-04-05 14:19:00,
2013-04-05 10:25:00,68.8,66.6,29.90,SW,225,4.5,4.7,93,0.00,,,0.03,WUHU216HW,2013-04-05 14:25:00,
2013-04-05 10:30:00,68.8,66.6,29.90,West,270,1.6,4.7,93,0.00,,,0.03,WUHU216HW,2013-04-05 14:30:00,
2013-04-05 10:35:00,68.9,66.8,29.90,NNW,338,0.4,3.4,93,0.00,,,0.03,WUHU216HW,2013-04-05 14:35:00,
2013-04-05 10:40:00,68.9,66.5,29.90,SSW,203,1.3,3.4,92,0.00,,,0.03,WUHU216HW,2013-04-05 14:40:00,
2013-04-05 10:45:00,68.6,65.8,29.90,ESE,113,1.3,2.2,91,0.00,,,0.03,WUHU216HW,2013-04-05 14:45:00,
2013-04-05 10:50:00,68.2,64.8,29.91,WNW,293,2.5,4.3,89,0.00,,,0.03,WUHU216HW,2013-04-05 14:50:00,
2013-04-05 10:55:00,68.0,64.6,29.91,North,0,3.1,4.3,89,0.00,,,0.03,WUHU216HW,2013-04-05 14:55:00,
2013-04-05 11:00:00,68.2,64.8,29.91,WNW,293,2.2,3.1,89,0.00,,,0.03,WUHU216HW,2013-04-05 15:00:00,
2013-04-05 11:05:00,68.4,65.0,29.91,South,180,2.0,3.1,89,0.00,,,0.03,WUHU216HW,2013-04-05 15:05:00,
2013-04-05 11:10:00,68.6,65.2,29.91,WNW,293,2.0,3.1,89,0.00,,,0.03,WUHU216HW,2013-04-05 15:10:00,
2013-04-05 11:15:00,69.1,65.7,29.91,North,0,1.1,2.0,89,0.00,,,0.03,WUHU216HW,2013-04-05 15:15:00,
2013-04-05 11:20:00,69.5,65.1,29.92,North,0,4.7,6.3,86,0.00,,,0.03,WUHU216HW,2013-04-05 15:20:00,
2013-04-05 11:25:00,69.3,64.5,29.92,North,0,4.7,6.3,85,0.00,,,0.03,WUHU216HW,2013-04-05 15:25:00,
2013-04-05 11:30:00,69.1,64.1,29.92,NNW,338,2.5,5.6,84,0.00,,,0.03,WUHU216HW,2013-04-05 15:30:00,
2013-04-05 11:35:00,68.9,63.5,29.92,NE,45,2.9,5.6,83,0.00,,,0.03,WUHU216HW,2013-04-05 15:35:00,
2013-04-05 11:40:00,69.3,64.3,29.92,WNW,293,1.6,4.0,84,0.00,,,0.03,WUHU216HW,2013-04-05 15:40:00,
2013-04-05 11:45:00,69.5,64.1,29.92,West,270,2.2,2.9,83,0.00,,,0.03,WUHU216HW,2013-04-05 15:45:00,
2013-04-05 11:50:00,69.7,63.2,29.92,NNW,338,4.5,4.5,80,0.00,,,0.03,WUHU216HW,2013-04-05 15:50:00,
2013-04-05 11:55:00,69.7,63.2,29.92,NNW,338,2.2,5.4,80,0.00,,,0.03,WUHU216HW,2013-04-05 15:55:00,
2013-04-05 12:00:00,69.7,63.2,29.92,NNW,338,0.0,5.4,80,0.00,,,0.03,WUHU216HW,2013-04-05 16:00:00,
2013-04-05 12:05:00,70.0,63.5,29.92,North,0,2.9,3.8,80,0.00,,,0.03,WUHU216HW,2013-04-05 16:05:00,
2013-04-05 12:10:00,70.2,62.6,29.92,NW,315,0.7,4.7,77,0.00,,,0.03,WUHU216HW,2013-04-05 16:10:00,
2013-04-05 12:15:00,70.6,62.6,29.92,West,270,1.8,4.7,76,0.00,,,0.03,WUHU216HW,2013-04-05 16:15:00,
2013-04-05 12:20:00,71.3,62.2,29.92,NE,45,1.3,4.5,73,0.00,,,0.03,WUHU216HW,2013-04-05 16:20:00,
2013-04-05 12:25:00,71.6,61.7,29.92,North,0,4.3,4.5,71,0.00,,,0.03,WUHU216HW,2013-04-05 16:25:00,
2013-04-05 12:30:00,72.0,62.1,29.92,West,270,0.4,4.7,71,0.00,,,0.03,WUHU216HW,2013-04-05 16:30:00,
2013-04-05 12:35:00,71.8,61.6,29.91,North,0,2.7,7.6,70,0.00,,,0.03,WUHU216HW,2013-04-05 16:35:00,
2013-04-05 12:40:00,72.2,61.0,29.91,North,0,7.4,7.6,68,0.00,,,0.03,WUHU216HW,2013-04-05 16:40:00,
2013-04-05 12:45:00,72.4,61.2,29.91,NNW,338,2.7,7.4,68,0.00,,,0.03,WUHU216HW,2013-04-05 16:45:00,
2013-04-05 12:50:00,72.2,61.0,29.91,North,0,4.0,5.8,68,0.00,,,0.03,WUHU216HW,2013-04-05 16:50:00,
2013-04-05 12:55:00,72.0,61.7,29.91,WSW,248,3.4,4.0,70,0.00,,,0.03,WUHU216HW,2013-04-05 16:55:00,
2013-04-05 13:00:00,72.2,60.6,29.91,NNW,338,3.1,7.6,67,0.00,,,0.03,WUHU216HW,2013-04-05 17:00:00,
2013-04-05 13:05:00,72.0,60.0,29.91,NW,315,6.3,7.6,66,0.00,,,0.03,WUHU216HW,2013-04-05 17:05:00,
2013-04-05 13:10:00,71.8,60.7,29.91,NNW,338,3.4,6.3,68,0.00,,,0.03,WUHU216HW,2013-04-05 17:10:00,
2013-04-05 13:16:00,72.2,61.5,29.90,North,0,1.3,3.4,69,0.00,,,0.03,WUHU216HW,2013-04-05 17:16:00,
2013-04-05 13:20:00,72.2,61.0,29.90,NNW,338,2.5,5.8,68,0.00,,,0.03,WUHU216HW,2013-04-05 17:20:00,
2013-04-05 13:26:00,72.2,61.5,29.90,North,0,0.0,5.8,69,0.00,,,0.03,WUHU216HW,2013-04-05 17:26:00,
2013-04-05 13:31:00,72.4,61.7,29.90,North,0,1.8,3.8,69,0.00,,,0.03,WUHU216HW,2013-04-05 17:31:00,
2013-04-05 13:36:00,72.7,61.6,29.90,NE,45,1.8,3.8,68,0.00,,,0.03,WUHU216HW,2013-04-05 17:36:00,
2013-04-05 13:42:00,72.5,60.9,29.90,NW,315,4.7,6.9,67,0.00,,,0.03,WUHU216HW,2013-04-05 17:42:00,
2013-04-05 13:47:00,72.4,61.7,29.90,NNW,338,4.7,6.9,69,0.00,,,0.03,WUHU216HW,2013-04-05 17:47:00,
2013-04-05 13:52:00,72.0,61.3,29.89,NW,315,3.4,6.3,69,0.00,,,0.03,WUHU216HW,2013-04-05 17:52:00,
2013-04-05 13:57:00,71.8,61.6,29.89,WNW,293,3.4,5.6,70,0.00,,,0.03,WUHU216HW,2013-04-05 17:57:00,
2013-04-05 14:02:00,71.6,60.5,29.89,NNW,338,1.6,4.9,68,0.00,,,0.03,WUHU216HW,2013-04-05 18:02:00,
2013-04-05 14:07:00,72.0,61.3,29.89,NW,315,3.4,4.7,69,0.00,,,0.03,WUHU216HW,2013-04-05 18:07:00,
2013-04-05 14:12:00,72.5,61.8,29.89,NW,315,2.2,4.0,69,0.00,,,0.03,WUHU216HW,2013-04-05 18:12:00,
2013-04-05 14:17:00,72.2,61.0,29.89,NW,315,1.6,4.0,68,0.00,,,0.03,WUHU216HW,2013-04-05 18:17:00,
2013-04-05 14:22:00,72.0,60.4,29.89,NNW,338,2.7,4.0,67,0.00,,,0.03,WUHU216HW,2013-04-05 18:22:00,
2013-04-05 14:27:00,71.8,59.9,29.89,West,270,4.0,4.0,66,0.00,,,0.03,WUHU216HW,2013-04-05 18:27:00,
2013-04-05 14:32:00,71.8,60.7,29.89,NNW,338,0.4,4.0,68,0.00,,,0.03,WUHU216HW,2013-04-05 18:32:00,
2013-04-05 14:37:00,71.8,59.4,29.89,NNW,338,6.5,6.5,65,0.00,,,0.03,WUHU216HW,2013-04-05 18:37:00,
2013-04-05 14:42:00,72.0,60.4,29.89,NE,45,1.1,6.5,67,0.00,,,0.03,WUHU216HW,2013-04-05 18:42:00,
2013-04-05 14:47:00,72.4,60.8,29.88,North,0,2.5,3.8,67,0.00,,,0.03,WUHU216HW,2013-04-05 18:47:00,
2013-04-05 14:52:00,72.9,59.9,29.88,North,0,5.4,5.4,64,0.00,,,0.03,WUHU216HW,2013-04-05 18:52:00,
2013-04-05 14:57:00,72.9,59.5,29.88,NNW,338,1.8,5.4,63,0.00,,,0.03,WUHU216HW,2013-04-05 18:57:00,
2013-04-05 15:02:00,72.9,58.7,29.88,North,0,6.0,6.0,61,0.00,,,0.03,WUHU216HW,2013-04-05 19:02:00,
2013-04-05 15:07:00,72.7,59.0,29.88,SE,135,0.9,6.0,62,0.00,,,0.03,WUHU216HW,2013-04-05 19:07:00,
2013-04-05 15:12:00,73.8,60.0,29.87,West,270,1.1,4.0,62,0.00,,,0.03,WUHU216HW,2013-04-05 19:12:00,
2013-04-05 15:17:00,74.5,57.2,29.88,NNW,338,5.4,6.3,55,0.00,,,0.03,WUHU216HW,2013-04-05 19:17:00,
2013-04-05 15:22:00,75.1,57.8,29.87,North,0,3.8,6.3,55,0.00,,,0.03,WUHU216HW,2013-04-05 19:22:00,
2013-04-05 15:27:00,75.4,58.2,29.87,North,0,3.6,5.6,55,0.00,,,0.03,WUHU216HW,2013-04-05 19:27:00,
2013-04-05 15:33:00,75.8,59.5,29.87,SSW,203,0.9,5.6,57,0.00,,,0.03,WUHU216HW,2013-04-05 19:33:00,
2013-04-05 15:38:00,76.3,59.4,29.87,NE,45,1.6,4.5,56,0.00,,,0.03,WUHU216HW,2013-04-05 19:38:00,
2013-04-05 15:43:00,76.1,58.2,29.88,WNW,293,3.4,4.5,54,0.00,,,0.03,WUHU216HW,2013-04-05 19:43:00,
2013-04-05 15:48:00,75.2,58.0,29.87,ENE,68,1.6,3.4,55,0.00,,,0.03,WUHU216HW,2013-04-05 19:48:00,
2013-04-05 15:53:00,75.1,58.3,29.87,North,0,1.6,3.1,56,0.00,,,0.03,WUHU216HW,2013-04-05 19:53:00,
2013-04-05 15:58:00,75.2,58.0,29.87,NW,315,2.7,4.0,55,0.00,,,0.03,WUHU216HW,2013-04-05 19:58:00,
2013-04-05 16:03:00,74.9,57.1,29.87,NNE,23,3.4,4.7,54,0.00,,,0.03,WUHU216HW,2013-04-05 20:03:00,
2013-04-05 16:08:00,74.7,58.0,29.87,NNE,23,2.7,4.7,56,0.00,,,0.03,WUHU216HW,2013-04-05 20:08:00,
2013-04-05 16:13:00,74.3,57.6,29.87,NNW,338,0.4,6.7,56,0.00,,,0.03,WUHU216HW,2013-04-05 20:13:00,
2013-04-05 16:18:00,74.7,58.0,29.86,NNE,23,4.0,6.7,56,0.00,,,0.03,WUHU216HW,2013-04-05 20:18:00,
2013-04-05 16:23:00,75.6,59.3,29.86,WNW,293,1.1,4.7,57,0.00,,,0.03,WUHU216HW,2013-04-05 20:23:00,
2013-04-05 16:28:00,76.1,58.2,29.86,NNW,338,3.1,3.8,54,0.00,,,0.03,WUHU216HW,2013-04-05 20:28:00,
2013-04-05 16:33:00,75.6,57.2,29.86,NNW,338,3.6,6.9,53,0.00,,,0.03,WUHU216HW,2013-04-05 20:33:00,
2013-04-05 16:38:00,75.4,58.2,29.86,West,270,1.6,6.9,55,0.00,,,0.03,WUHU216HW,2013-04-05 20:38:00,
2013-04-05 16:43:00,75.8,59.5,29.85,SSE,158,3.1,5.1,57,0.00,,,0.03,WUHU216HW,2013-04-05 20:43:00,
2013-04-05 16:47:00,76.3,59.0,29.86,WNW,293,0.9,3.6,55,0.00,,,0.03,WUHU216HW,2013-04-05 20:47:00,
2013-04-05 16:52:00,75.8,59.0,29.86,NW,315,4.3,7.8,56,0.00,,,0.03,WUHU216HW,2013-04-05 20:52:00,
2013-04-05 16:57:00,75.2,58.5,29.85,NW,315,1.8,7.8,56,0.00,,,0.03,WUHU216HW,2013-04-05 20:57:00,
2013-04-05 17:02:00,74.2,57.4,29.85,NNW,338,3.6,4.7,56,0.00,,,0.03,WUHU216HW,2013-04-05 21:02:00,
2013-04-05 17:07:00,73.3,57.5,29.85,North,0,1.3,4.7,58,0.00,,,0.03,WUHU216HW,2013-04-05 21:07:00,
2013-04-05 17:12:00,72.9,57.7,29.85,NNE,23,0.4,4.3,59,0.00,,,0.03,WUHU216HW,2013-04-05 21:12:00,
2013-04-05 17:18:00,72.4,57.3,29.86,NW,315,4.0,4.7,59,0.00,,,0.03,WUHU216HW,2013-04-05 21:18:00,
2013-04-05 17:23:00,72.0,57.4,29.85,West,270,1.1,4.7,60,0.00,,,0.03,WUHU216HW,2013-04-05 21:23:00,
2013-04-05 17:28:00,71.8,57.7,29.85,North,0,2.5,2.5,61,0.00,,,0.03,WUHU216HW,2013-04-05 21:28:00,
2013-04-05 17:33:00,71.8,58.1,29.85,NNW,338,2.0,2.7,62,0.00,,,0.03,WUHU216HW,2013-04-05 21:33:00,
2013-04-05 17:38:00,71.8,58.5,29.85,North,0,2.5,4.0,63,0.00,,,0.03,WUHU216HW,2013-04-05 21:38:00,
2013-04-05 17:43:00,71.8,58.5,29.85,NNE,23,1.8,4.0,63,0.00,,,0.03,WUHU216HW,2013-04-05 21:43:00,
2013-04-05 17:48:00,71.8,58.5,29.85,WNW,293,2.0,3.8,63,0.00,,,0.03,WUHU216HW,2013-04-05 21:48:00,
2013-04-05 17:53:00,71.6,58.0,29.86,ENE,68,2.0,3.8,62,0.00,,,0.03,WUHU216HW,2013-04-05 21:53:00,
2013-04-05 17:58:00,71.1,57.0,29.86,NW,315,2.7,6.3,61,0.00,,,0.03,WUHU216HW,2013-04-05 21:58:00,
2013-04-05 18:03:00,70.6,55.6,29.86,NW,315,5.1,6.3,59,0.00,,,0.03,WUHU216HW,2013-04-05 22:03:00,
2013-04-05 18:08:00,70.6,56.1,29.86,SW,225,3.8,5.1,60,0.00,,,0.03,WUHU216HW,2013-04-05 22:08:00,
2013-04-05 18:13:00,70.6,56.5,29.86,WNW,293,1.8,3.8,61,0.00,,,0.03,WUHU216HW,2013-04-05 22:13:00,
2013-04-05 18:18:00,70.6,56.1,29.86,NNW,338,3.1,3.1,60,0.00,,,0.03,WUHU216HW,2013-04-05 22:18:00,
2013-04-05 18:23:00,70.2,55.8,29.87,NW,315,2.5,4.7,60,0.00,,,0.03,WUHU216HW,2013-04-05 22:23:00,
2013-04-05 18:28:00,70.2,56.2,29.87,NNW,338,0.7,4.7,61,0.00,,,0.03,WUHU216HW,2013-04-05 22:28:00,
2013-04-05 18:33:00,70.0,56.4,29.87,NNW,338,2.7,4.0,62,0.00,,,0.03,WUHU216HW,2013-04-05 22:33:00,
2013-04-05 18:38:00,69.5,56.4,29.87,NNW,338,2.9,4.0,63,0.00,,,0.03,WUHU216HW,2013-04-05 22:38:00,
2013-04-05 18:43:00,69.1,56.4,29.87,West,270,4.0,4.0,64,0.00,,,0.03,WUHU216HW,2013-04-05 22:43:00,
2013-04-05 18:48:00,68.8,56.5,29.88,NNW,338,2.7,4.0,65,0.00,,,0.03,WUHU216HW,2013-04-05 22:48:00,
2013-04-05 18:53:00,68.6,56.7,29.88,North,0,4.0,4.0,66,0.00,,,0.03,WUHU216HW,2013-04-05 22:53:00,
2013-04-05 18:58:00,68.0,56.7,29.88,North,0,4.0,4.0,67,0.00,,,0.03,WUHU216HW,2013-04-05 22:58:00,
2013-04-05 19:03:00,67.7,56.7,29.89,NNW,338,1.6,4.0,68,0.00,,,0.03,WUHU216HW,2013-04-05 23:03:00,
2013-04-05 19:08:00,67.3,56.8,29.89,NNW,338,3.6,3.6,69,0.00,,,0.03,WUHU216HW,2013-04-05 23:08:00,
2013-04-05 19:13:00,67.0,56.9,29.89,WNW,293,1.6,4.7,70,0.00,,,0.03,WUHU216HW,2013-04-05 23:13:00,
2013-04-05 19:18:00,66.6,56.5,29.89,NNW,338,1.6,4.7,70,0.00,,,0.03,WUHU216HW,2013-04-05 23:18:00,
2013-04-05 19:23:00,66.4,56.7,29.89,WNW,293,1.1,4.7,71,0.00,,,0.03,WUHU216HW,2013-04-05 23:23:00,
2013-04-05 19:28:00,66.1,56.8,29.89,North,0,2.5,4.7,72,0.00,,,0.03,WUHU216HW,2013-04-05 23:28:00,
2013-04-05 19:33:00,65.9,56.6,29.89,NNE,23,1.6,3.4,72,0.00,,,0.03,WUHU216HW,2013-04-05 23:33:00,
2013-04-05 19:38:00,65.7,56.8,29.90,NNW,338,2.5,3.1,73,0.00,,,0.03,WUHU216HW,2013-04-05 23:38:00,
2013-04-05 19:43:00,65.3,56.4,29.90,North,0,0.4,2.5,73,0.00,,,0.03,WUHU216HW,2013-04-05 23:43:00,
2013-04-05 19:48:00,65.2,56.7,29.90,North,0,2.5,2.5,74,0.00,,,0.03,WUHU216HW,2013-04-05 23:48:00,
2013-04-05 19:53:00,65.0,56.9,29.90,NNE,23,1.3,2.5,75,0.00,,,0.03,WUHU216HW,2013-04-05 23:53:00,
2013-04-05 19:58:00,64.8,56.7,29.90,North,0,1.3,1.3,75,0.00,,,0.03,WUHU216HW,2013-04-05 23:58:00,
2013-04-05 20:03:00,64.4,56.7,29.90,NNE,23,0.4,2.2,76,0.00,,,0.03,WUHU216HW,2013-04-06 00:03:00,
2013-04-05 20:08:00,64.3,56.9,29.91,NNW,338,0.9,3.6,77,0.00,,,0.03,WUHU216HW,2013-04-06 00:08:00,
2013-04-05 20:13:00,64.1,57.4,29.91,NW,315,1.3,3.6,79,0.00,,,0.03,WUHU216HW,2013-04-06 00:13:00,
2013-04-05 20:18:00,63.9,57.2,29.91,NW,315,1.8,2.5,79,0.00,,,0.03,WUHU216HW,2013-04-06 00:18:00,
2013-04-05 20:23:00,63.7,57.1,29.92,NNW,338,0.2,1.8,79,0.00,,,0.03,WUHU216HW,2013-04-06 00:23:00,
2013-04-05 20:28:00,63.7,57.4,29.92,NNW,338,4.3,4.3,80,0.00,,,0.03,WUHU216HW,2013-04-06 00:28:00,
2013-04-05 20:33:00,63.4,57.1,29.92,North,0,0.7,4.3,80,0.00,,,0.03,WUHU216HW,2013-04-06 00:33:00,
2013-04-05 20:38:00,63.4,57.4,29.93,West,270,0.4,2.9,81,0.00,,,0.03,WUHU216HW,2013-04-06 00:38:00,
2013-04-05 20:43:00,63.4,57.4,29.93,NNE,23,2.0,2.9,81,0.00,,,0.03,WUHU216HW,2013-04-06 00:43:00,
2013-04-05 20:48:00,63.2,57.3,29.93,NNE,23,0.4,3.1,81,0.00,,,0.03,WUHU216HW,2013-04-06 00:48:00,
2013-04-05 20:53:00,63.0,57.4,29.94,WNW,293,0.2,3.1,82,0.00,,,0.03,WUHU216HW,2013-04-06 00:53:00,
2013-04-05 20:58:00,63.0,57.4,29.94,NNW,338,0.9,2.5,82,0.00,,,0.03,WUHU216HW,2013-04-06 00:58:00,
2013-04-05 21:03:00,63.0,57.7,29.94,North,0,1.6,1.6,83,0.00,,,0.03,WUHU216HW,2013-04-06 01:03:00,
2013-04-05 21:08:00,62.8,57.5,29.94,North,0,1.3,2.5,83,0.00,,,0.03,WUHU216HW,2013-04-06 01:08:00,
2013-04-05 21:13:00,62.6,57.7,29.95,NNW,338,1.1,4.7,84,0.00,,,0.03,WUHU216HW,2013-04-06 01:13:00,
2013-04-05 21:18:00,62.6,57.3,29.95,NNW,338,0.7,4.7,83,0.00,,,0.03,WUHU216HW,2013-04-06 01:18:00,
2013-04-05 21:23:00,62.5,57.5,29.95,North,0,0.9,2.5,84,0.00,,,0.03,WUHU216HW,2013-04-06 01:23:00,
2013-04-05 21:28:00,62.5,57.5,29.95,NNE,23,2.5,5.4,84,0.00,,,0.03,WUHU216HW,2013-04-06 01:28:00,
2013-04-05 21:33:00,62.5,57.3,29.96,North,0,0.2,5.4,83,0.00,,,0.03,WUHU216HW,2013-04-06 01:33:00,
2013-04-05 21:38:00,62.6,57.3,29.96,NNE,23,2.9,3.4,83,0.00,,,0.03,WUHU216HW,2013-04-06 01:38:00,
2013-04-05 21:43:00,62.6,57.3,29.97,NW,315,2.5,3.1,83,0.00,,,0.03,WUHU216HW,2013-04-06 01:43:00,
2013-04-05 21:48:00,62.8,57.3,29.97,NNE,23,2.5,4.7,82,0.00,,,0.03,WUHU216HW,2013-04-06 01:48:00,
2013-04-05 21:53:00,62.6,57.1,29.97,NNE,23,3.4,4.7,82,0.00,,,0.03,WUHU216HW,2013-04-06 01:53:00,
2013-04-05 21:58:00,62.6,57.1,29.97,NNE,23,2.9,4.3,82,0.00,,,0.03,WUHU216HW,2013-04-06 01:58:00,
2013-04-05 22:03:00,62.5,56.9,29.97,NNE,23,2.5,4.9,82,0.00,,,0.03,WUHU216HW,2013-04-06 02:03:00,
2013-04-05 22:08:00,62.3,56.7,29.98,North,0,1.1,4.9,82,0.00,,,0.03,WUHU216HW,2013-04-06 02:08:00,
2013-04-05 22:13:00,62.3,56.7,29.98,North,0,1.3,4.0,82,0.00,,,0.03,WUHU216HW,2013-04-06 02:13:00,
2013-04-05 22:18:00,62.3,56.7,29.98,North,0,2.2,5.4,82,0.00,,,0.03,WUHU216HW,2013-04-06 02:18:00,
2013-04-05 22:23:00,61.9,56.7,29.99,NNE,23,1.3,5.4,83,0.00,,,0.03,WUHU216HW,2013-04-06 02:23:00,
2013-04-05 22:28:00,61.9,56.7,29.99,NE,45,1.8,4.7,83,0.00,,,0.03,WUHU216HW,2013-04-06 02:28:00,
2013-04-05 22:33:00,61.9,56.7,29.99,North,0,1.6,4.7,83,0.00,,,0.03,WUHU216HW,2013-04-06 02:33:00,
2013-04-05 22:38:00,61.9,56.3,30.00,NW,315,2.0,3.6,82,0.00,,,0.03,WUHU216HW,2013-04-06 02:38:00,
2013-04-05 22:43:00,61.7,55.9,30.00,North,0,4.7,4.7,81,0.00,,,0.03,WUHU216HW,2013-04-06 02:43:00,
2013-04-05 22:48:00,61.7,55.9,30.00,NNE,23,1.8,4.7,81,0.00,,,0.03,WUHU216HW,2013-04-06 02:48:00,
2013-04-05 22:53:00,61.7,55.9,30.00,NNE,23,1.8,3.6,81,0.00,,,0.03,WUHU216HW,2013-04-06 02:53:00,
2013-04-05 22:58:00,61.7,55.9,30.00,NNE,23,1.6,2.2,81,0.00,,,0.03,WUHU216HW,2013-04-06 02:58:00,
2013-04-05 23:04:00,61.7,55.9,30.00,NNE,23,4.0,4.0,81,0.00,,,0.03,WUHU216HW,2013-04-06 03:04:00,
2013-04-05 23:09:00,61.6,55.7,30.00,NE,45,2.7,4.3,81,0.00,,,0.03,WUHU216HW,2013-04-06 03:09:00,
2013-04-05 23:14:00,61.6,55.7,30.01,North,0,3.1,4.3,81,0.00,,,0.03,WUHU216HW,2013-04-06 03:14:00,
2013-04-05 23:19:00,61.6,55.7,30.01,North,0,0.7,3.4,81,0.00,,,0.03,WUHU216HW,2013-04-06 03:19:00,
2013-04-05 23:24:00,61.6,55.4,30.01,NE,45,1.6,4.0,80,0.00,,,0.03,WUHU216HW,2013-04-06 03:24:00,
2013-04-05 23:29:00,61.4,55.2,30.01,North,0,2.7,4.0,80,0.00,,,0.03,WUHU216HW,2013-04-06 03:29:00,
2013-04-05 23:34:00,61.4,55.2,30.01,North,0,2.5,4.0,80,0.00,,,0.03,WUHU216HW,2013-04-06 03:34:00,
2013-04-05 23:39:00,61.2,55.1,30.01,North,0,2.5,4.5,80,0.00,,,0.03,WUHU216HW,2013-04-06 03:39:00,
2013-04-05 23:44:00,61.2,55.1,30.01,North,0,1.8,4.5,80,0.00,,,0.03,WUHU216HW,2013-04-06 03:44:00,
2013-04-05 23:49:00,61.0,54.9,30.01,NE,45,1.3,4.5,80,0.00,,,0.03,WUHU216HW,2013-04-06 03:49:00,
2013-04-05 23:54:00,60.8,55.1,30.01,North,0,5.1,5.1,81,0.00,,,0.03,WUHU216HW,2013-04-06 03:54:00,